sensor_id;sensor_type;location;lat;lon;timestamp;P1;durP1;ratioP1;P2;durP2;ratioP2
13706;SDS011;6925;47.816;13.072;2022-07-23T00:05:54;4.82;;;3.92;;
13706;SDS011;6925;47.816;13.072;2022-07-23T00:08:21;4.32;;;3.95;;
13706;SDS011;6925;47.816;13.072;2022-07-23T00:10:51;4.43;;;4.03;;
13706;SDS011;6925;47.816;13.072;2022-07-23T00:13:18;4.13;;;3.65;;
13706;SDS011;6925;47.816;13.072;2022-07-23T00:15:46;4.70;;;4.05;;
13706;SDS011;6925;47.816;13.072;2022-07-23T00:18:14;4.28;;;3.90;;
13706;SDS011;6925;47.816;13.072;2022-07-23T00:20:57;3.25;;;3.05;;
13706;SDS011;6925;47.816;13.072;2022-07-23T00:23:30;3.90;;;3.60;;
13706;SDS011;6925;47.816;13.072;2022-07-23T00:43:35;3.78;;;3.40;;
13706;SDS011;6925;47.816;13.072;2022-07-23T01:11:50;4.00;;;3.60;;
13706;SDS011;6925;47.816;13.072;2022-07-23T01:58:28;3.55;;;3.22;;
13706;SDS011;6925;47.816;13.072;2022-07-23T02:01:24;3.85;;;3.55;;
13706;SDS011;6925;47.816;13.072;2022-07-23T02:03:55;3.25;;;2.95;;
13706;SDS011;6925;47.816;13.072;2022-07-23T02:14:11;3.20;;;3.00;;
13706;SDS011;6925;47.816;13.072;2022-07-23T02:16:44;3.55;;;3.25;;
13706;SDS011;6925;47.816;13.072;2022-07-23T02:19:12;3.50;;;3.20;;
13706;SDS011;6925;47.816;13.072;2022-07-23T02:21:40;4.03;;;3.03;;
13706;SDS011;6925;47.816;13.072;2022-07-23T02:24:10;4.25;;;3.45;;
13706;SDS011;6925;47.816;13.072;2022-07-23T02:26:38;3.50;;;3.20;;
13706;SDS011;6925;47.816;13.072;2022-07-23T02:29:06;3.42;;;3.13;;
13706;SDS011;6925;47.816;13.072;2022-07-23T02:31:42;3.75;;;3.30;;
13706;SDS011;6925;47.816;13.072;2022-07-23T03:08:06;3.30;;;3.00;;
13706;SDS011;6925;47.816;13.072;2022-07-23T03:23:34;2.92;;;2.72;;
13706;SDS011;6925;47.816;13.072;2022-07-23T03:26:01;3.72;;;3.30;;
13706;SDS011;6925;47.816;13.072;2022-07-23T03:28:29;3.05;;;2.85;;
13706;SDS011;6925;47.816;13.072;2022-07-23T03:33:48;4.13;;;3.72;;
13706;SDS011;6925;47.816;13.072;2022-07-23T03:36:18;4.20;;;3.80;;
13706;SDS011;6925;47.816;13.072;2022-07-23T03:38:47;4.03;;;3.72;;
13706;SDS011;6925;47.816;13.072;2022-07-23T03:41:15;4.30;;;3.90;;
13706;SDS011;6925;47.816;13.072;2022-07-23T03:43:43;3.95;;;3.65;;
13706;SDS011;6925;47.816;13.072;2022-07-23T03:46:18;4.43;;;4.03;;
13706;SDS011;6925;47.816;13.072;2022-07-23T03:48:55;4.25;;;3.88;;
13706;SDS011;6925;47.816;13.072;2022-07-23T03:51:23;4.32;;;4.03;;
13706;SDS011;6925;47.816;13.072;2022-07-23T03:53:52;4.38;;;3.97;;
13706;SDS011;6925;47.816;13.072;2022-07-23T03:56:19;5.28;;;4.57;;
13706;SDS011;6925;47.816;13.072;2022-07-23T03:59:03;5.15;;;4.65;;
13706;SDS011;6925;47.816;13.072;2022-07-23T04:01:54;4.53;;;4.13;;
13706;SDS011;6925;47.816;13.072;2022-07-23T04:04:35;4.47;;;4.10;;
13706;SDS011;6925;47.816;13.072;2022-07-23T04:07:07;4.70;;;4.30;;
13706;SDS011;6925;47.816;13.072;2022-07-23T04:49:04;5.85;;;3.72;;
13706;SDS011;6925;47.816;13.072;2022-07-23T04:51:35;4.60;;;4.18;;
13706;SDS011;6925;47.816;13.072;2022-07-23T05:13:00;4.28;;;3.97;;
13706;SDS011;6925;47.816;13.072;2022-07-23T05:15:29;4.00;;;3.70;;
13706;SDS011;6925;47.816;13.072;2022-07-23T05:17:59;5.57;;;4.28;;
13706;SDS011;6925;47.816;13.072;2022-07-23T05:20:27;4.75;;;4.35;;
13706;SDS011;6925;47.816;13.072;2022-07-23T05:25:52;3.95;;;3.58;;
13706;SDS011;6925;47.816;13.072;2022-07-23T05:28:23;4.45;;;4.05;;
13706;SDS011;6925;47.816;13.072;2022-07-23T05:30:54;4.65;;;4.25;;
13706;SDS011;6925;47.816;13.072;2022-07-23T05:33:24;4.03;;;3.60;;
13706;SDS011;6925;47.816;13.072;2022-07-23T05:35:53;4.60;;;3.60;;
13706;SDS011;6925;47.816;13.072;2022-07-23T05:38:20;4.32;;;4.03;;
13706;SDS011;6925;47.816;13.072;2022-07-23T05:40:48;4.38;;;3.97;;
13706;SDS011;6925;47.816;13.072;2022-07-23T05:43:15;5.22;;;3.78;;
13706;SDS011;6925;47.816;13.072;2022-07-23T05:45:44;4.55;;;4.18;;
13706;SDS011;6925;47.816;13.072;2022-07-23T05:48:12;4.68;;;4.28;;
13706;SDS011;6925;47.816;13.072;2022-07-23T05:50:40;3.90;;;3.60;;
13706;SDS011;6925;47.816;13.072;2022-07-23T06:04:31;4.28;;;3.88;;
13706;SDS011;6925;47.816;13.072;2022-07-23T06:07:01;4.03;;;3.63;;
13706;SDS011;6925;47.816;13.072;2022-07-23T06:10:58;4.38;;;3.88;;
13706;SDS011;6925;47.816;13.072;2022-07-23T06:13:31;4.13;;;3.78;;
13706;SDS011;6925;47.816;13.072;2022-07-23T06:16:45;3.90;;;3.50;;
13706;SDS011;6925;47.816;13.072;2022-07-23T06:33:15;3.95;;;3.65;;
13706;SDS011;6925;47.816;13.072;2022-07-23T06:36:02;5.05;;;3.60;;
13706;SDS011;6925;47.816;13.072;2022-07-23T06:38:49;4.40;;;4.00;;
13706;SDS011;6925;47.816;13.072;2022-07-23T06:41:19;4.00;;;3.53;;
13706;SDS011;6925;47.816;13.072;2022-07-23T06:49:18;3.95;;;3.65;;
13706;SDS011;6925;47.816;13.072;2022-07-23T06:51:57;3.90;;;3.58;;
13706;SDS011;6925;47.816;13.072;2022-07-23T06:54:39;4.07;;;3.78;;
13706;SDS011;6925;47.816;13.072;2022-07-23T06:57:16;3.65;;;3.30;;
13706;SDS011;6925;47.816;13.072;2022-07-23T06:59:44;3.72;;;3.42;;
13706;SDS011;6925;47.816;13.072;2022-07-23T07:02:15;3.63;;;3.33;;
13706;SDS011;6925;47.816;13.072;2022-07-23T07:07:29;3.60;;;3.30;;
13706;SDS011;6925;47.816;13.072;2022-07-23T07:10:03;3.97;;;3.67;;
13706;SDS011;6925;47.816;13.072;2022-07-23T07:15:53;3.10;;;2.90;;
13706;SDS011;6925;47.816;13.072;2022-07-23T09:12:32;4.18;;;3.80;;
13706;SDS011;6925;47.816;13.072;2022-07-23T09:15:18;4.70;;;3.40;;
13706;SDS011;6925;47.816;13.072;2022-07-23T09:17:47;3.85;;;3.47;;
13706;SDS011;6925;47.816;13.072;2022-07-23T09:30:47;3.40;;;3.10;;
13706;SDS011;6925;47.816;13.072;2022-07-23T09:41:38;3.53;;;3.22;;
13706;SDS011;6925;47.816;13.072;2022-07-23T09:44:33;3.10;;;2.90;;
13706;SDS011;6925;47.816;13.072;2022-07-23T09:47:13;3.50;;;3.20;;
13706;SDS011;6925;47.816;13.072;2022-07-23T09:55:14;3.53;;;3.30;;
13706;SDS011;6925;47.816;13.072;2022-07-23T09:58:15;3.53;;;3.22;;
13706;SDS011;6925;47.816;13.072;2022-07-23T10:46:27;4.40;;;4.00;;
13706;SDS011;6925;47.816;13.072;2022-07-23T15:06:24;3.58;;;2.92;;
13706;SDS011;6925;47.816;13.072;2022-07-23T15:12:14;3.30;;;3.00;;
13706;SDS011;6925;47.816;13.072;2022-07-23T15:19:55;3.20;;;2.88;;
13706;SDS011;6925;47.816;13.072;2022-07-23T17:10:29;6.07;;;4.50;;
13706;SDS011;6925;47.816;13.072;2022-07-23T17:12:56;8.05;;;4.57;;
13706;SDS011;6925;47.816;13.072;2022-07-23T17:15:24;5.78;;;5.18;;
13706;SDS011;6925;47.816;13.072;2022-07-23T17:17:51;5.03;;;4.63;;
13706;SDS011;6925;47.816;13.072;2022-07-23T17:20:18;5.25;;;4.85;;
13706;SDS011;6925;47.816;13.072;2022-07-23T17:22:46;6.28;;;4.97;;
13706;SDS011;6925;47.816;13.072;2022-07-23T17:25:13;5.88;;;5.38;;
13706;SDS011;6925;47.816;13.072;2022-07-23T17:27:45;5.72;;;5.25;;
13706;SDS011;6925;47.816;13.072;2022-07-23T17:30:13;5.38;;;4.97;;
13706;SDS011;6925;47.816;13.072;2022-07-23T17:32:43;5.28;;;4.82;;
13706;SDS011;6925;47.816;13.072;2022-07-23T17:35:10;5.82;;;5.32;;
13706;SDS011;6925;47.816;13.072;2022-07-23T17:58:39;5.60;;;5.10;;
13706;SDS011;6925;47.816;13.072;2022-07-23T18:01:13;4.97;;;4.57;;
13706;SDS011;6925;47.816;13.072;2022-07-23T18:04:03;5.20;;;4.80;;
13706;SDS011;6925;47.816;13.072;2022-07-23T18:06:30;4.93;;;4.53;;
13706;SDS011;6925;47.816;13.072;2022-07-23T18:09:02;5.10;;;4.70;;
13706;SDS011;6925;47.816;13.072;2022-07-23T18:12:01;5.05;;;4.55;;
13706;SDS011;6925;47.816;13.072;2022-07-23T20:00:01;5.82;;;5.32;;
13706;SDS011;6925;47.816;13.072;2022-07-23T20:02:37;5.47;;;5.07;;
13706;SDS011;6925;47.816;13.072;2022-07-23T20:05:32;6.63;;;5.43;;
13706;SDS011;6925;47.816;13.072;2022-07-23T20:35:31;6.25;;;5.65;;
13706;SDS011;6925;47.816;13.072;2022-07-23T20:51:12;6.00;;;5.50;;
13706;SDS011;6925;47.816;13.072;2022-07-23T20:53:45;5.90;;;5.28;;
13706;SDS011;6925;47.816;13.072;2022-07-23T20:56:12;5.93;;;5.43;;
13706;SDS011;6925;47.816;13.072;2022-07-23T20:58:46;7.03;;;5.72;;
13706;SDS011;6925;47.816;13.072;2022-07-23T21:01:15;9.00;;;5.45;;
13706;SDS011;6925;47.816;13.072;2022-07-23T21:03:43;5.40;;;4.90;;
13706;SDS011;6925;47.816;13.072;2022-07-23T21:06:11;6.22;;;5.63;;
13706;SDS011;6925;47.816;13.072;2022-07-23T21:08:39;5.55;;;5.05;;
13706;SDS011;6925;47.816;13.072;2022-07-23T21:11:06;5.97;;;5.47;;
13706;SDS011;6925;47.816;13.072;2022-07-23T21:13:34;5.82;;;5.32;;
13706;SDS011;6925;47.816;13.072;2022-07-23T21:23:49;6.00;;;5.40;;
13706;SDS011;6925;47.816;13.072;2022-07-23T21:43:04;6.93;;;5.65;;
13706;SDS011;6925;47.816;13.072;2022-07-23T21:45:31;6.47;;;5.85;;
13706;SDS011;6925;47.816;13.072;2022-07-23T21:47:59;8.52;;;5.95;;
13706;SDS011;6925;47.816;13.072;2022-07-23T21:50:26;6.45;;;5.85;;
13706;SDS011;6925;47.816;13.072;2022-07-23T21:52:54;6.45;;;5.80;;
13706;SDS011;6925;47.816;13.072;2022-07-23T21:55:26;6.13;;;5.60;;
13706;SDS011;6925;47.816;13.072;2022-07-23T22:49:24;5.50;;;5.07;;
